createdAt,value
2022-12-13T05:11:36.278Z,-14.49
2022-12-13T05:14:13.570Z,-14.38
2022-12-13T05:16:41.447Z,-14.24
2022-12-13T05:19:09.095Z,-14.12
2022-12-13T05:21:36.730Z,-13.99
2022-12-13T05:24:04.670Z,-13.85
2022-12-13T05:26:32.374Z,-13.80
2022-12-13T05:29:00.098Z,-13.92
2022-12-13T05:31:27.847Z,-13.98
2022-12-13T05:33:55.533Z,-13.87
2022-12-13T05:36:30.692Z,-13.73
2022-12-13T05:38:58.366Z,-13.70
2022-12-13T05:41:29.410Z,-13.91
2022-12-13T05:43:58.034Z,-14.07
2022-12-13T05:46:25.758Z,-14.13
2022-12-13T05:48:53.412Z,-14.06
2022-12-13T05:51:21.073Z,-13.95
2022-12-13T05:53:53.297Z,-13.92
2022-12-13T05:56:22.878Z,-13.89
2022-12-13T05:58:53.359Z,-13.81
2022-12-13T06:01:22.779Z,-13.78
2022-12-13T06:03:50.481Z,-13.92
2022-12-13T06:06:18.426Z,-13.90
2022-12-13T06:08:46.215Z,-13.96
2022-12-13T06:11:31.201Z,-13.95
2022-12-13T06:14:01.080Z,-13.90
2022-12-13T06:16:29.096Z,-13.82
2022-12-13T06:19:03.736Z,-13.94
2022-12-13T06:21:41.844Z,-13.93
2022-12-13T06:24:18.633Z,-13.79
2022-12-13T06:26:46.548Z,-13.69
2022-12-13T06:29:23.496Z,-13.65
2022-12-13T06:32:02.245Z,-13.60
2022-12-13T06:34:35.777Z,-13.52
2022-12-13T06:37:07.238Z,-13.44
2022-12-13T06:39:35.462Z,-13.44
2022-12-13T06:42:06.644Z,-13.35
2022-12-13T06:44:35.557Z,-13.30
2022-12-13T06:47:11.240Z,-13.33
2022-12-13T06:49:43.385Z,-13.30
2022-12-13T06:52:12.970Z,-13.26
2022-12-13T06:54:42.558Z,-13.24
2022-12-13T06:57:14.149Z,-13.20
2022-12-13T06:59:42.308Z,-13.13
2022-12-13T07:02:10.270Z,-13.08
2022-12-13T07:04:54.284Z,-13.19
2022-12-13T07:07:22.493Z,-13.48
2022-12-13T07:09:50.152Z,-13.68
2022-12-13T07:12:19.464Z,-13.85
2022-12-13T07:14:47.268Z,-13.96
2022-12-13T15:58:37.331Z,-14.60
2022-12-13T16:01:08.251Z,-14.54
2022-12-13T16:03:44.812Z,-14.66
2022-12-13T16:06:18.750Z,-14.45
2022-12-13T16:08:54.481Z,-14.29
2022-12-13T16:11:50.362Z,-14.15
2022-12-13T16:14:35.575Z,-14.07
2022-12-13T16:17:14.677Z,-13.76
2022-12-13T16:19:42.508Z,-13.44
2022-12-13T16:22:10.124Z,-13.21
2022-12-13T16:24:40.031Z,-13.24
2022-12-13T16:27:09.908Z,-13.68
2022-12-13T16:29:37.553Z,-13.75
2022-12-13T16:32:07.924Z,-13.51
2022-12-13T16:34:39.238Z,-13.26
2022-12-13T16:37:26.772Z,-13.05
2022-12-13T16:39:56.037Z,-12.90
2022-12-13T16:42:26.983Z,-12.89
2022-12-13T16:45:40.436Z,-12.90
2022-12-13T16:47:49.621Z,-12.90
2022-12-13T16:50:20.080Z,-12.80
2022-12-13T16:52:49.111Z,-12.71
2022-12-13T16:55:16.913Z,-12.70
2022-12-13T16:57:55.682Z,-12.68
2022-12-13T17:00:23.803Z,-12.66
2022-12-13T17:02:51.537Z,-12.62
2022-12-13T17:05:19.617Z,-12.55
2022-12-13T17:07:47.291Z,-12.49
2022-12-13T17:10:16.791Z,-12.60
2022-12-13T17:12:45.106Z,-12.76
2022-12-13T17:15:13.837Z,-12.86
2022-12-13T17:17:44.069Z,-13.08
2022-12-13T17:20:17.936Z,-13.21
2022-12-13T17:22:46.784Z,-13.14
2022-12-13T17:25:15.004Z,-13.11
2022-12-13T17:27:43.120Z,-12.95
2022-12-13T17:30:15.363Z,-12.79
2022-12-13T17:32:45.901Z,-12.67
2022-12-13T17:35:18.146Z,-12.60
2022-12-13T17:37:46.476Z,-12.57
2022-12-13T17:40:14.194Z,-12.57
2022-12-13T17:42:41.868Z,-12.59
2022-12-13T17:45:09.901Z,-12.51
2022-12-13T17:47:39.468Z,-12.42
2022-12-13T17:50:09.154Z,-12.29
2022-12-13T17:52:38.810Z,-12.14
2022-12-13T17:55:07.400Z,-12.03
2022-12-13T17:57:35.634Z,-11.95
2022-12-13T18:00:04.235Z,-11.92
2022-12-13T18:02:40.462Z,-11.84
2022-12-13T18:05:10.982Z,-11.79
2022-12-13T18:07:42.296Z,-11.78
2022-12-13T18:10:18.971Z,-11.78
2022-12-13T18:12:46.606Z,-11.73
2022-12-13T18:15:14.370Z,-11.71
2022-12-13T18:18:10.100Z,-11.73
2022-12-13T18:20:30.273Z,-11.80
2022-12-13T18:22:58.658Z,-11.83
2022-12-13T18:25:26.291Z,-11.87
2022-12-13T18:28:00.629Z,-11.96
2022-12-13T18:30:31.274Z,-11.94
2022-12-13T18:32:59.341Z,-11.97
2022-12-13T18:35:27.678Z,-12.01
2022-12-13T18:37:55.341Z,-12.01
2022-12-13T18:40:22.969Z,-11.92
2022-12-13T18:42:51.039Z,-11.91
2022-12-13T18:45:19.962Z,-11.88
2022-12-13T18:47:47.636Z,-11.81
2022-12-13T18:50:15.628Z,-11.78
2022-12-13T18:52:43.991Z,-11.73
2022-12-13T18:55:11.623Z,-11.75
2022-12-13T18:57:39.357Z,-11.77
2022-12-13T19:00:08.461Z,-11.79
2022-12-13T19:02:36.337Z,-11.81
2022-12-13T19:05:05.027Z,-11.87
2022-12-13T19:07:32.708Z,-11.84
2022-12-13T19:10:00.559Z,-11.81
2022-12-13T19:12:28.443Z,-11.78
2022-12-13T19:14:56.889Z,-11.87
2022-12-13T19:17:25.114Z,-11.93
2022-12-13T19:19:54.582Z,-11.99
2022-12-13T19:22:23.521Z,-12.00
2022-12-13T19:24:51.432Z,-12.14
2022-12-13T19:27:19.964Z,-12.17
2022-12-13T19:29:48.272Z,-12.17
2022-12-13T19:32:16.102Z,-12.20
2022-12-13T19:34:43.886Z,-12.24
2022-12-13T19:37:11.769Z,-12.28
2022-12-13T19:39:39.521Z,-12.28
2022-12-13T19:42:07.277Z,-12.33
2022-12-13T19:44:35.451Z,-12.35
2022-12-13T19:47:03.518Z,-12.40
2022-12-13T19:49:31.717Z,-12.39
2022-12-13T19:52:00.450Z,-12.30
2022-12-13T19:54:28.415Z,-12.21
2022-12-13T19:56:56.168Z,-12.10
2022-12-13T19:59:23.905Z,-11.95
2022-12-13T20:01:51.656Z,-11.82
2022-12-13T20:04:19.419Z,-11.73
2022-12-13T20:06:47.087Z,-11.66
2022-12-13T20:09:14.847Z,-11.58
2022-12-13T20:11:42.576Z,-11.49
2022-12-13T20:14:10.275Z,-11.43
2022-12-13T20:16:37.993Z,-11.52
2022-12-13T20:19:05.709Z,-11.49
2022-12-13T20:21:33.540Z,-11.44
2022-12-13T20:24:01.447Z,-11.40
2022-12-13T20:26:30.469Z,-11.41
2022-12-13T20:28:58.121Z,-11.41
2022-12-13T20:31:28.984Z,-11.45
2022-12-13T20:33:58.144Z,-11.47
2022-12-13T20:36:28.011Z,-11.43
2022-12-13T20:38:57.464Z,-11.42
2022-12-13T20:41:27.502Z,-11.46
2022-12-13T20:43:57.393Z,-11.51
2022-12-13T20:46:26.735Z,-11.48
2022-12-13T20:48:55.499Z,-11.51
2022-12-13T20:51:25.575Z,-11.52
2022-12-13T20:53:54.516Z,-11.55
2022-12-13T20:56:25.317Z,-11.53
2022-12-13T20:58:52.815Z,-11.53
2022-12-13T21:01:22.957Z,-11.51
2022-12-13T21:03:56.540Z,-11.57
2022-12-13T21:06:24.430Z,-11.63
2022-12-13T21:08:52.394Z,-11.62
2022-12-13T21:11:27.287Z,-11.66
2022-12-13T21:14:06.875Z,-11.60
2022-12-13T21:16:40.299Z,-11.64
2022-12-13T21:19:10.025Z,-11.55
2022-12-13T21:21:38.029Z,-11.54
2022-12-13T21:24:06.068Z,-11.58
2022-12-13T21:26:35.970Z,-11.61
2022-12-13T21:29:06.981Z,-11.58
2022-12-13T21:31:36.199Z,-11.53
2022-12-13T21:34:05.398Z,-11.57
2022-12-13T21:36:38.297Z,-11.71
2022-12-13T21:39:08.653Z,-11.70
2022-12-13T21:41:36.373Z,-11.69
2022-12-13T21:44:04.891Z,-11.71
2022-12-13T21:47:11.966Z,-11.73
